createdAt,value
2022-11-16T04:59:42.656Z,20.25
2022-11-16T05:02:46.110Z,20.20
2022-11-16T05:05:50.298Z,19.77
2022-11-16T05:08:53.302Z,22.65
2022-11-16T05:11:55.830Z,19.92
2022-11-16T05:14:59.250Z,21.73
2022-11-16T05:18:01.972Z,19.87
2022-11-16T05:21:05.061Z,18.75
2022-11-16T05:24:27.173Z,19.73
2022-11-16T05:27:31.046Z,21.00
2022-11-16T05:30:33.664Z,21.70
2022-11-16T05:33:38.052Z,20.95
2022-11-16T05:36:40.982Z,20.67
2022-11-16T05:39:44.053Z,19.80
2022-11-16T05:42:46.690Z,22.62
2022-11-16T05:45:49.470Z,21.83
2022-11-16T05:48:52.259Z,21.27
2022-11-16T05:51:55.125Z,20.45
2022-11-16T05:54:57.927Z,21.37
2022-11-16T05:58:01.031Z,21.65
2022-11-16T06:01:04.079Z,22.23
2022-11-16T06:04:07.747Z,23.25
2022-11-16T06:07:10.426Z,23.55
2022-11-16T06:10:13.342Z,22.42
2022-11-16T06:13:17.296Z,23.05
2022-11-16T06:16:20.344Z,20.92
2022-11-16T06:19:26.960Z,22.27
2022-11-16T06:25:38.532Z,21.12
2022-11-16T06:28:41.828Z,24.12
2022-11-16T06:31:44.534Z,22.48
2022-11-16T06:34:48.207Z,23.40
2022-11-16T06:37:51.156Z,22.37
2022-11-16T06:40:58.324Z,23.58
2022-11-16T06:44:01.688Z,24.27
2022-11-16T06:47:05.127Z,23.52
2022-11-16T06:50:08.851Z,22.95
2022-11-16T06:53:11.661Z,23.67
2022-11-16T06:56:16.350Z,24.48
2022-11-16T06:59:19.820Z,25.42
2022-11-16T07:02:23.261Z,23.02
2022-11-16T07:05:26.204Z,25.25
2022-11-16T07:08:30.187Z,24.65
2022-11-16T07:11:34.634Z,24.17
2022-11-16T07:14:37.507Z,22.98
2022-11-16T07:17:41.515Z,24.23
2022-11-16T07:20:44.424Z,23.48
2022-11-16T07:23:47.358Z,23.50
2022-11-16T07:26:50.864Z,22.67
2022-11-16T07:29:54.301Z,24.02
2022-11-16T07:32:58.918Z,23.17
2022-11-16T07:36:10.140Z,24.00
2022-11-16T07:39:13.121Z,23.80
2022-11-16T07:42:16.053Z,24.37
2022-11-16T07:45:18.830Z,23.58
2022-11-16T07:48:23.188Z,23.55
2022-11-16T07:51:27.976Z,26.90
2022-11-16T07:54:33.606Z,23.30
2022-11-16T07:57:36.285Z,24.90
2022-11-16T08:00:39.504Z,25.50
2022-11-16T08:03:44.749Z,24.90
2022-11-16T08:06:47.916Z,24.73
2022-11-16T08:09:51.083Z,25.42
2022-11-16T08:12:54.788Z,24.23
2022-11-16T08:16:02.385Z,27.65
2022-11-16T08:19:05.041Z,24.60
2022-11-16T08:22:09.613Z,24.70
2022-11-16T08:25:14.331Z,25.27
2022-11-16T08:28:17.707Z,22.90
2022-11-16T08:31:31.479Z,25.52
2022-11-16T08:34:34.832Z,23.50
2022-11-16T08:37:39.195Z,24.75
2022-11-16T08:40:43.426Z,25.60
2022-11-16T08:43:47.395Z,24.15
2022-11-16T08:46:50.787Z,23.90
2022-11-16T08:49:53.730Z,25.70
2022-11-16T08:52:57.409Z,26.10
2022-11-16T08:56:11.770Z,23.83
2022-11-16T08:59:14.879Z,25.08
2022-11-16T09:02:25.431Z,23.17
2022-11-16T09:05:28.858Z,25.60
2022-11-16T09:08:31.820Z,23.35
2022-11-16T09:11:34.788Z,26.60
2022-11-16T09:14:37.227Z,30.35
2022-11-16T09:17:40.075Z,25.17
2022-11-16T09:20:45.657Z,27.37
2022-11-16T09:23:49.456Z,28.55
2022-11-16T09:26:51.903Z,24.08
2022-11-16T09:29:54.679Z,24.65
2022-11-16T09:32:59.058Z,24.75
2022-11-16T09:36:07.017Z,22.92
2022-11-16T09:39:30.510Z,22.58
2022-11-16T09:43:15.605Z,22.23
2022-11-16T09:46:36.506Z,21.92
2022-11-16T09:50:03.711Z,24.25
2022-11-16T09:53:36.298Z,21.87
2022-11-16T09:56:42.475Z,20.85
2022-11-16T09:59:52.214Z,24.12
2022-11-16T10:06:21.413Z,25.10
2022-11-16T10:09:25.856Z,23.40
2022-11-16T10:12:43.626Z,24.45
2022-11-16T10:16:14.287Z,23.77
2022-11-16T10:19:34.750Z,24.05
2022-11-16T10:22:54.508Z,21.25
2022-11-16T10:26:19.791Z,21.62
2022-11-16T10:29:46.577Z,21.02
2022-11-16T10:32:55.459Z,24.58
2022-11-16T10:35:58.205Z,22.13
2022-11-16T10:39:02.502Z,23.38
2022-11-16T10:42:10.931Z,21.75
2022-11-16T10:45:21.689Z,22.77
2022-11-16T10:48:53.494Z,20.65
2022-11-16T10:51:56.664Z,22.15
2022-11-16T10:54:59.197Z,22.00
2022-11-16T10:58:04.871Z,22.10
2022-11-16T11:01:10.831Z,21.37
2022-11-16T11:04:21.974Z,22.20
2022-11-16T11:07:39.959Z,22.48
2022-11-16T11:10:43.299Z,21.23
2022-11-16T11:13:45.935Z,22.02
2022-11-16T11:16:53.472Z,20.27
2022-11-16T11:20:04.321Z,21.83
2022-11-16T11:23:20.708Z,19.52
2022-11-16T11:26:36.174Z,20.40
2022-11-16T11:29:42.624Z,18.95
2022-11-16T11:32:46.146Z,19.87
2022-11-16T11:35:58.940Z,19.80
2022-11-16T11:39:07.836Z,18.67
2022-11-16T11:42:13.795Z,18.95
2022-11-16T11:45:17.534Z,20.90
2022-11-16T11:48:42.467Z,19.08
2022-11-16T11:51:47.340Z,19.83
2022-11-16T11:54:52.418Z,18.27
2022-11-16T11:57:56.613Z,19.95
2022-11-16T12:01:20.815Z,21.05
2022-11-16T12:04:54.242Z,19.87
2022-11-16T12:08:02.908Z,21.30
2022-11-16T12:11:12.647Z,18.50
2022-11-16T12:14:21.094Z,20.42
2022-11-16T12:17:32.673Z,19.42
2022-11-16T12:21:03.899Z,19.90
2022-11-16T12:24:35.557Z,19.35
2022-11-16T12:28:06.153Z,21.15
2022-11-16T12:31:44.619Z,20.42
2022-11-16T12:35:12.178Z,19.48
2022-11-16T12:38:33.781Z,20.15
2022-11-16T12:41:55.797Z,21.30
2022-11-16T12:45:19.116Z,19.35
2022-11-16T12:48:57.643Z,22.10
2022-11-16T12:52:36.738Z,20.67
2022-11-16T12:55:56.613Z,20.77
2022-11-16T12:59:20.653Z,18.80
2022-11-16T13:02:38.547Z,18.33
2022-11-16T13:06:19.596Z,18.95
2022-11-16T13:09:27.979Z,19.33
2022-11-16T13:12:32.268Z,17.83
2022-11-16T13:15:38.575Z,18.40
2022-11-16T13:18:42.950Z,17.83
2022-11-16T13:21:56.273Z,19.52
2022-11-16T13:25:17.483Z,18.25
2022-11-16T13:28:36.781Z,18.73
2022-11-16T13:32:18.856Z,18.35
2022-11-16T13:35:23.109Z,18.35
2022-11-16T13:38:52.498Z,18.77
2022-11-16T13:42:13.423Z,18.85
2022-11-16T13:45:20.721Z,21.42
2022-11-16T13:48:38.127Z,19.83
2022-11-16T13:51:51.769Z,19.95
2022-11-16T13:54:55.980Z,18.65
2022-11-16T13:58:01.309Z,17.27
2022-11-16T14:01:10.927Z,17.77
2022-11-16T14:04:35.575Z,16.00
2022-11-16T14:07:47.214Z,15.48
2022-11-16T14:10:52.806Z,16.60
2022-11-16T14:13:55.645Z,17.15
2022-11-16T14:16:58.718Z,15.68
2022-11-16T14:20:01.399Z,15.77
2022-11-16T14:23:39.283Z,16.80
2022-11-16T14:27:00.108Z,17.30
2022-11-16T14:30:13.791Z,16.55
2022-11-16T14:33:31.159Z,17.23
2022-11-16T14:36:39.001Z,16.30
2022-11-16T14:39:45.905Z,17.98
2022-11-16T14:46:26.315Z,15.23
2022-11-16T14:49:33.557Z,15.38
2022-11-16T14:52:45.082Z,15.55
2022-11-16T14:55:47.834Z,15.10
2022-11-16T14:59:02.178Z,15.10
2022-11-16T15:02:16.358Z,16.35
2022-11-16T15:05:21.383Z,15.68
2022-11-16T15:08:31.812Z,17.10
2022-11-16T15:11:57.528Z,16.00
2022-11-16T15:15:08.030Z,14.32
2022-11-16T15:18:14.843Z,15.55
2022-11-16T15:21:24.908Z,15.73
2022-11-16T15:27:42.629Z,15.32
2022-11-16T15:30:50.380Z,16.62
2022-11-16T15:33:53.359Z,16.37
2022-11-16T15:36:55.909Z,16.85
2022-11-16T15:40:00.070Z,16.65
2022-11-16T15:43:05.840Z,15.55
2022-11-16T15:46:09.143Z,15.63
2022-11-16T15:49:26.606Z,16.17
2022-11-16T15:52:50.984Z,16.45
2022-11-16T15:55:53.599Z,14.18
2022-11-16T15:58:59.011Z,15.88
2022-11-16T16:02:03.614Z,15.35
2022-11-16T16:05:06.853Z,16.23
2022-11-16T16:08:25.968Z,14.20
2022-11-16T16:11:28.782Z,14.48
2022-11-16T16:14:31.344Z,14.80
2022-11-16T16:17:34.429Z,15.02
2022-11-16T16:20:37.729Z,15.60
2022-11-16T16:23:47.323Z,15.52
2022-11-16T16:26:49.839Z,14.63
2022-11-16T16:30:04.015Z,15.75
2022-11-16T16:33:06.587Z,15.40
2022-11-16T16:36:11.589Z,15.98
2022-11-16T16:39:13.960Z,14.52
2022-11-16T16:42:17.744Z,15.27
2022-11-16T16:45:27.224Z,14.52
2022-11-16T16:48:30.671Z,14.65
2022-11-16T16:51:33.155Z,15.25
2022-11-16T16:54:36.366Z,15.95
2022-11-16T16:57:38.843Z,16.05
